sensor_id;sensor_type;location;lat;lon;timestamp;P1;durP1;ratioP1;P2;durP2;ratioP2
10910;SDS011;5508;49.150;11.030;2023-11-18T00:02:27;12.93;;;8.30;;
10910;SDS011;5508;49.150;11.030;2023-11-18T00:05:28;12.07;;;8.57;;
10910;SDS011;5508;49.150;11.030;2023-11-18T00:08:28;12.37;;;8.63;;
10910;SDS011;5508;49.150;11.030;2023-11-18T00:11:29;11.80;;;9.23;;
10910;SDS011;5508;49.150;11.030;2023-11-18T00:14:30;11.83;;;9.20;;
10910;SDS011;5508;49.150;11.030;2023-11-18T00:17:30;12.80;;;9.13;;
10910;SDS011;5508;49.150;11.030;2023-11-18T00:20:32;9.97;;;6.80;;
10910;SDS011;5508;49.150;11.030;2023-11-18T00:23:33;7.83;;;5.70;;
10910;SDS011;5508;49.150;11.030;2023-11-18T00:26:34;10.90;;;6.33;;
10910;SDS011;5508;49.150;11.030;2023-11-18T00:29:34;8.77;;;6.23;;
10910;SDS011;5508;49.150;11.030;2023-11-18T00:32:38;9.63;;;6.47;;
10910;SDS011;5508;49.150;11.030;2023-11-18T00:35:39;8.90;;;6.63;;
10910;SDS011;5508;49.150;11.030;2023-11-18T00:38:39;10.07;;;6.47;;
10910;SDS011;5508;49.150;11.030;2023-11-18T00:41:40;8.10;;;6.63;;
10910;SDS011;5508;49.150;11.030;2023-11-18T00:44:40;10.03;;;6.23;;
10910;SDS011;5508;49.150;11.030;2023-11-18T00:47:42;10.97;;;6.80;;
10910;SDS011;5508;49.150;11.030;2023-11-18T00:50:42;11.63;;;7.50;;
10910;SDS011;5508;49.150;11.030;2023-11-18T00:53:43;13.07;;;8.10;;
10910;SDS011;5508;49.150;11.030;2023-11-18T00:56:44;11.57;;;8.30;;
10910;SDS011;5508;49.150;11.030;2023-11-18T00:59:45;15.43;;;7.97;;
10910;SDS011;5508;49.150;11.030;2023-11-18T01:02:45;7.90;;;6.47;;
10910;SDS011;5508;49.150;11.030;2023-11-18T01:05:48;9.90;;;6.57;;
10910;SDS011;5508;49.150;11.030;2023-11-18T01:08:48;6.57;;;5.53;;
10910;SDS011;5508;49.150;11.030;2023-11-18T01:11:49;7.30;;;6.17;;
10910;SDS011;5508;49.150;11.030;2023-11-18T01:14:50;7.90;;;6.50;;
10910;SDS011;5508;49.150;11.030;2023-11-18T01:17:50;10.67;;;7.30;;
10910;SDS011;5508;49.150;11.030;2023-11-18T01:20:51;11.70;;;6.77;;
10910;SDS011;5508;49.150;11.030;2023-11-18T01:23:52;10.03;;;6.87;;
10910;SDS011;5508;49.150;11.030;2023-11-18T01:26:52;10.87;;;7.47;;
10910;SDS011;5508;49.150;11.030;2023-11-18T01:29:53;10.60;;;8.00;;
10910;SDS011;5508;49.150;11.030;2023-11-18T01:32:53;13.20;;;8.20;;
10910;SDS011;5508;49.150;11.030;2023-11-18T01:35:54;9.50;;;7.17;;
10910;SDS011;5508;49.150;11.030;2023-11-18T01:38:55;11.43;;;7.50;;
10910;SDS011;5508;49.150;11.030;2023-11-18T01:41:56;12.33;;;7.10;;
10910;SDS011;5508;49.150;11.030;2023-11-18T01:44:59;12.27;;;7.57;;
10910;SDS011;5508;49.150;11.030;2023-11-18T01:48:04;15.30;;;7.80;;
10910;SDS011;5508;49.150;11.030;2023-11-18T01:51:05;10.30;;;8.30;;
10910;SDS011;5508;49.150;11.030;2023-11-18T01:54:07;10.87;;;7.93;;
10910;SDS011;5508;49.150;11.030;2023-11-18T01:57:09;10.07;;;7.53;;
10910;SDS011;5508;49.150;11.030;2023-11-18T02:00:10;10.00;;;7.80;;
10910;SDS011;5508;49.150;11.030;2023-11-18T02:03:12;14.13;;;8.63;;
10910;SDS011;5508;49.150;11.030;2023-11-18T02:06:13;15.70;;;8.87;;
10910;SDS011;5508;49.150;11.030;2023-11-18T02:09:16;11.30;;;8.10;;
10910;SDS011;5508;49.150;11.030;2023-11-18T02:15:33;14.00;;;8.47;;
10910;SDS011;5508;49.150;11.030;2023-11-18T02:18:35;10.80;;;7.90;;
10910;SDS011;5508;49.150;11.030;2023-11-18T02:21:40;11.27;;;7.33;;
10910;SDS011;5508;49.150;11.030;2023-11-18T02:24:40;9.77;;;7.73;;
10910;SDS011;5508;49.150;11.030;2023-11-18T02:27:42;10.13;;;8.27;;
10910;SDS011;5508;49.150;11.030;2023-11-18T02:30:45;11.23;;;8.90;;
10910;SDS011;5508;49.150;11.030;2023-11-18T02:34:12;12.93;;;8.50;;
10910;SDS011;5508;49.150;11.030;2023-11-18T02:37:16;10.43;;;8.57;;
10910;SDS011;5508;49.150;11.030;2023-11-18T02:40:24;13.33;;;8.07;;
10910;SDS011;5508;49.150;11.030;2023-11-18T02:43:30;11.33;;;8.33;;
10910;SDS011;5508;49.150;11.030;2023-11-18T02:46:31;9.60;;;7.47;;
10910;SDS011;5508;49.150;11.030;2023-11-18T02:49:32;10.80;;;7.67;;
10910;SDS011;5508;49.150;11.030;2023-11-18T02:52:34;11.67;;;8.27;;
10910;SDS011;5508;49.150;11.030;2023-11-18T02:55:35;12.40;;;8.10;;
10910;SDS011;5508;49.150;11.030;2023-11-18T02:58:35;14.87;;;8.50;;
10910;SDS011;5508;49.150;11.030;2023-11-18T03:01:36;12.93;;;8.77;;
10910;SDS011;5508;49.150;11.030;2023-11-18T03:04:39;12.63;;;8.37;;
10910;SDS011;5508;49.150;11.030;2023-11-18T03:07:42;14.63;;;9.70;;
10910;SDS011;5508;49.150;11.030;2023-11-18T03:10:49;12.50;;;8.83;;
10910;SDS011;5508;49.150;11.030;2023-11-18T03:13:52;14.00;;;9.43;;
10910;SDS011;5508;49.150;11.030;2023-11-18T03:16:53;11.87;;;8.87;;
10910;SDS011;5508;49.150;11.030;2023-11-18T03:19:55;15.10;;;9.40;;
10910;SDS011;5508;49.150;11.030;2023-11-18T03:22:58;14.77;;;9.53;;
10910;SDS011;5508;49.150;11.030;2023-11-18T03:26:01;13.43;;;9.23;;
10910;SDS011;5508;49.150;11.030;2023-11-18T03:29:01;12.03;;;8.53;;
10910;SDS011;5508;49.150;11.030;2023-11-18T03:32:02;13.27;;;9.43;;
10910;SDS011;5508;49.150;11.030;2023-11-18T03:35:05;14.30;;;9.20;;
10910;SDS011;5508;49.150;11.030;2023-11-18T03:38:10;16.77;;;9.53;;
10910;SDS011;5508;49.150;11.030;2023-11-18T03:41:10;15.47;;;9.03;;
10910;SDS011;5508;49.150;11.030;2023-11-18T03:44:12;13.70;;;9.93;;
10910;SDS011;5508;49.150;11.030;2023-11-18T03:47:13;13.23;;;9.20;;
10910;SDS011;5508;49.150;11.030;2023-11-18T03:50:14;12.37;;;9.30;;
10910;SDS011;5508;49.150;11.030;2023-11-18T03:53:15;15.00;;;9.97;;
10910;SDS011;5508;49.150;11.030;2023-11-18T03:56:18;13.37;;;9.17;;
10910;SDS011;5508;49.150;11.030;2023-11-18T03:59:19;13.50;;;8.33;;
10910;SDS011;5508;49.150;11.030;2023-11-18T04:02:20;14.90;;;9.23;;
10910;SDS011;5508;49.150;11.030;2023-11-18T04:05:20;15.00;;;9.90;;
10910;SDS011;5508;49.150;11.030;2023-11-18T04:08:21;11.57;;;8.87;;
10910;SDS011;5508;49.150;11.030;2023-11-18T04:11:22;13.00;;;8.87;;
10910;SDS011;5508;49.150;11.030;2023-11-18T04:14:23;14.57;;;9.60;;
10910;SDS011;5508;49.150;11.030;2023-11-18T04:17:25;10.80;;;8.40;;
10910;SDS011;5508;49.150;11.030;2023-11-18T04:20:28;13.53;;;9.33;;
10910;SDS011;5508;49.150;11.030;2023-11-18T04:23:28;73.50;;;48.07;;
10910;SDS011;5508;49.150;11.030;2023-11-18T04:26:30;34.47;;;23.40;;
10910;SDS011;5508;49.150;11.030;2023-11-18T04:29:32;33.63;;;21.87;;
10910;SDS011;5508;49.150;11.030;2023-11-18T04:32:33;14.13;;;10.77;;
10910;SDS011;5508;49.150;11.030;2023-11-18T04:35:33;22.67;;;15.40;;
10910;SDS011;5508;49.150;11.030;2023-11-18T04:38:35;18.30;;;12.77;;
10910;SDS011;5508;49.150;11.030;2023-11-18T04:41:35;18.43;;;10.77;;
10910;SDS011;5508;49.150;11.030;2023-11-18T04:44:36;16.73;;;11.70;;
10910;SDS011;5508;49.150;11.030;2023-11-18T04:47:38;16.80;;;10.57;;
10910;SDS011;5508;49.150;11.030;2023-11-18T04:50:39;16.03;;;10.77;;
10910;SDS011;5508;49.150;11.030;2023-11-18T04:53:41;20.40;;;13.43;;
10910;SDS011;5508;49.150;11.030;2023-11-18T04:56:41;19.50;;;14.60;;
10910;SDS011;5508;49.150;11.030;2023-11-18T04:59:42;18.53;;;12.73;;
10910;SDS011;5508;49.150;11.030;2023-11-18T05:02:43;19.67;;;10.80;;
10910;SDS011;5508;49.150;11.030;2023-11-18T05:05:47;16.03;;;10.27;;
10910;SDS011;5508;49.150;11.030;2023-11-18T05:08:48;20.97;;;11.77;;
10910;SDS011;5508;49.150;11.030;2023-11-18T05:11:49;26.07;;;16.20;;
10910;SDS011;5508;49.150;11.030;2023-11-18T05:14:50;48.50;;;24.47;;
10910;SDS011;5508;49.150;11.030;2023-11-18T05:17:54;40.70;;;25.50;;
10910;SDS011;5508;49.150;11.030;2023-11-18T05:20:55;29.87;;;18.50;;
10910;SDS011;5508;49.150;11.030;2023-11-18T05:23:57;16.53;;;11.70;;
10910;SDS011;5508;49.150;11.030;2023-11-18T05:26:57;18.83;;;12.00;;
10910;SDS011;5508;49.150;11.030;2023-11-18T05:30:01;17.20;;;12.10;;
10910;SDS011;5508;49.150;11.030;2023-11-18T05:33:03;19.90;;;11.90;;
10910;SDS011;5508;49.150;11.030;2023-11-18T05:36:05;19.50;;;12.03;;
10910;SDS011;5508;49.150;11.030;2023-11-18T05:39:06;17.47;;;11.77;;
10910;SDS011;5508;49.150;11.030;2023-11-18T05:42:09;17.77;;;13.53;;
10910;SDS011;5508;49.150;11.030;2023-11-18T05:45:10;16.60;;;12.23;;
10910;SDS011;5508;49.150;11.030;2023-11-18T05:48:17;19.97;;;12.07;;
10910;SDS011;5508;49.150;11.030;2023-11-18T05:51:21;19.40;;;12.33;;
10910;SDS011;5508;49.150;11.030;2023-11-18T05:54:23;20.10;;;13.77;;
10910;SDS011;5508;49.150;11.030;2023-11-18T05:57:24;19.83;;;12.90;;
10910;SDS011;5508;49.150;11.030;2023-11-18T06:00:26;19.70;;;13.60;;
10910;SDS011;5508;49.150;11.030;2023-11-18T06:03:30;21.23;;;16.33;;
10910;SDS011;5508;49.150;11.030;2023-11-18T06:06:31;30.90;;;22.73;;
10910;SDS011;5508;49.150;11.030;2023-11-18T06:09:32;26.37;;;14.57;;
10910;SDS011;5508;49.150;11.030;2023-11-18T06:12:32;19.53;;;13.57;;
10910;SDS011;5508;49.150;11.030;2023-11-18T06:15:33;22.83;;;14.57;;
10910;SDS011;5508;49.150;11.030;2023-11-18T06:18:35;25.80;;;18.03;;
10910;SDS011;5508;49.150;11.030;2023-11-18T06:21:37;25.53;;;16.33;;
10910;SDS011;5508;49.150;11.030;2023-11-18T06:24:38;29.10;;;20.67;;
10910;SDS011;5508;49.150;11.030;2023-11-18T06:27:39;23.47;;;16.10;;
10910;SDS011;5508;49.150;11.030;2023-11-18T06:30:40;22.93;;;15.37;;
10910;SDS011;5508;49.150;11.030;2023-11-18T06:33:42;17.50;;;11.93;;
10910;SDS011;5508;49.150;11.030;2023-11-18T06:36:43;17.13;;;11.57;;
10910;SDS011;5508;49.150;11.030;2023-11-18T06:39:44;18.67;;;12.37;;
10910;SDS011;5508;49.150;11.030;2023-11-18T06:42:47;17.77;;;12.03;;
10910;SDS011;5508;49.150;11.030;2023-11-18T06:45:48;17.70;;;12.63;;
10910;SDS011;5508;49.150;11.030;2023-11-18T06:48:49;20.57;;;13.53;;
10910;SDS011;5508;49.150;11.030;2023-11-18T06:51:50;18.90;;;12.17;;
10910;SDS011;5508;49.150;11.030;2023-11-18T06:54:51;17.93;;;11.60;;
10910;SDS011;5508;49.150;11.030;2023-11-18T06:57:51;17.63;;;11.80;;
10910;SDS011;5508;49.150;11.030;2023-11-18T07:00:53;18.37;;;11.10;;
10910;SDS011;5508;49.150;11.030;2023-11-18T07:03:54;16.43;;;11.87;;
10910;SDS011;5508;49.150;11.030;2023-11-18T07:06:56;18.77;;;11.90;;
10910;SDS011;5508;49.150;11.030;2023-11-18T07:09:56;19.10;;;13.00;;
10910;SDS011;5508;49.150;11.030;2023-11-18T07:12:57;21.10;;;14.57;;
10910;SDS011;5508;49.150;11.030;2023-11-18T07:15:59;24.13;;;15.40;;
10910;SDS011;5508;49.150;11.030;2023-11-18T07:19:03;20.50;;;13.87;;
10910;SDS011;5508;49.150;11.030;2023-11-18T07:22:03;26.23;;;17.23;;
10910;SDS011;5508;49.150;11.030;2023-11-18T07:25:06;35.63;;;21.47;;
10910;SDS011;5508;49.150;11.030;2023-11-18T07:28:09;56.10;;;31.47;;
10910;SDS011;5508;49.150;11.030;2023-11-18T07:31:09;45.17;;;28.37;;
10910;SDS011;5508;49.150;11.030;2023-11-18T07:34:10;43.57;;;26.80;;
10910;SDS011;5508;49.150;11.030;2023-11-18T07:37:10;28.67;;;17.77;;
10910;SDS011;5508;49.150;11.030;2023-11-18T07:40:13;22.97;;;15.17;;
10910;SDS011;5508;49.150;11.030;2023-11-18T07:43:15;19.23;;;13.67;;
10910;SDS011;5508;49.150;11.030;2023-11-18T07:46:15;22.77;;;15.23;;
10910;SDS011;5508;49.150;11.030;2023-11-18T07:49:16;62.63;;;42.07;;
10910;SDS011;5508;49.150;11.030;2023-11-18T07:52:17;27.87;;;20.57;;
10910;SDS011;5508;49.150;11.030;2023-11-18T07:55:17;25.20;;;17.30;;
10910;SDS011;5508;49.150;11.030;2023-11-18T07:58:18;24.73;;;15.93;;
10910;SDS011;5508;49.150;11.030;2023-11-18T08:01:20;20.90;;;15.27;;
10910;SDS011;5508;49.150;11.030;2023-11-18T08:04:23;22.17;;;14.67;;
10910;SDS011;5508;49.150;11.030;2023-11-18T08:07:25;24.83;;;17.90;;
10910;SDS011;5508;49.150;11.030;2023-11-18T08:10:26;23.63;;;15.33;;
10910;SDS011;5508;49.150;11.030;2023-11-18T08:13:28;17.73;;;13.37;;
10910;SDS011;5508;49.150;11.030;2023-11-18T08:16:29;44.37;;;35.20;;
10910;SDS011;5508;49.150;11.030;2023-11-18T08:19:30;37.67;;;28.20;;
10910;SDS011;5508;49.150;11.030;2023-11-18T08:22:31;25.83;;;19.57;;
10910;SDS011;5508;49.150;11.030;2023-11-18T08:25:31;62.10;;;46.60;;
10910;SDS011;5508;49.150;11.030;2023-11-18T08:28:35;22.87;;;16.00;;
10910;SDS011;5508;49.150;11.030;2023-11-18T08:31:37;50.37;;;31.53;;
10910;SDS011;5508;49.150;11.030;2023-11-18T08:34:39;39.43;;;25.60;;
10910;SDS011;5508;49.150;11.030;2023-11-18T08:37:41;38.17;;;24.97;;
10910;SDS011;5508;49.150;11.030;2023-11-18T08:40:42;36.30;;;25.17;;
10910;SDS011;5508;49.150;11.030;2023-11-18T08:43:44;29.73;;;22.87;;
10910;SDS011;5508;49.150;11.030;2023-11-18T08:46:48;23.67;;;14.13;;
10910;SDS011;5508;49.150;11.030;2023-11-18T08:49:52;17.70;;;12.83;;
10910;SDS011;5508;49.150;11.030;2023-11-18T08:52:52;19.30;;;14.70;;
10910;SDS011;5508;49.150;11.030;2023-11-18T08:55:59;17.70;;;13.87;;
10910;SDS011;5508;49.150;11.030;2023-11-18T08:58:59;23.97;;;18.00;;
10910;SDS011;5508;49.150;11.030;2023-11-18T09:02:01;26.03;;;19.10;;
10910;SDS011;5508;49.150;11.030;2023-11-18T09:05:05;18.70;;;13.53;;
10910;SDS011;5508;49.150;11.030;2023-11-18T09:08:12;18.00;;;14.30;;
10910;SDS011;5508;49.150;11.030;2023-11-18T09:11:13;19.43;;;14.97;;
10910;SDS011;5508;49.150;11.030;2023-11-18T09:14:15;71.63;;;32.30;;
10910;SDS011;5508;49.150;11.030;2023-11-18T09:17:16;58.20;;;27.47;;
10910;SDS011;5508;49.150;11.030;2023-11-18T09:20:16;70.50;;;33.57;;
10910;SDS011;5508;49.150;11.030;2023-11-18T09:23:22;25.23;;;17.97;;
10910;SDS011;5508;49.150;11.030;2023-11-18T09:26:27;17.23;;;14.03;;
10910;SDS011;5508;49.150;11.030;2023-11-18T09:29:30;20.33;;;16.83;;
10910;SDS011;5508;49.150;11.030;2023-11-18T09:32:30;25.93;;;18.93;;
10910;SDS011;5508;49.150;11.030;2023-11-18T09:35:34;19.50;;;16.80;;
10910;SDS011;5508;49.150;11.030;2023-11-18T09:38:35;17.33;;;14.67;;
10910;SDS011;5508;49.150;11.030;2023-11-18T09:41:36;13.77;;;11.80;;
10910;SDS011;5508;49.150;11.030;2023-11-18T09:44:37;14.73;;;12.53;;
10910;SDS011;5508;49.150;11.030;2023-11-18T09:47:38;17.83;;;9.83;;
10910;SDS011;5508;49.150;11.030;2023-11-18T09:50:47;12.37;;;10.83;;
10910;SDS011;5508;49.150;11.030;2023-11-18T09:53:51;14.03;;;12.53;;
10910;SDS011;5508;49.150;11.030;2023-11-18T10:00:18;13.67;;;9.93;;
10910;SDS011;5508;49.150;11.030;2023-11-18T10:03:32;15.47;;;9.30;;
10910;SDS011;5508;49.150;11.030;2023-11-18T10:06:36;10.40;;;9.30;;
10910;SDS011;5508;49.150;11.030;2023-11-18T10:09:38;12.33;;;10.70;;
10910;SDS011;5508;49.150;11.030;2023-11-18T10:12:40;13.00;;;9.10;;
10910;SDS011;5508;49.150;11.030;2023-11-18T10:15:45;9.07;;;6.57;;
10910;SDS011;5508;49.150;11.030;2023-11-18T10:18:47;7.73;;;5.37;;
10910;SDS011;5508;49.150;11.030;2023-11-18T10:21:51;7.23;;;6.53;;
10910;SDS011;5508;49.150;11.030;2023-11-18T10:24:52;7.83;;;6.50;;
10910;SDS011;5508;49.150;11.030;2023-11-18T10:27:54;7.83;;;7.07;;
10910;SDS011;5508;49.150;11.030;2023-11-18T10:30:58;7.10;;;6.40;;
10910;SDS011;5508;49.150;11.030;2023-11-18T10:34:06;7.53;;;6.60;;
10910;SDS011;5508;49.150;11.030;2023-11-18T10:37:07;20.10;;;16.30;;
10910;SDS011;5508;49.150;11.030;2023-11-18T10:40:11;16.77;;;14.97;;
10910;SDS011;5508;49.150;11.030;2023-11-18T10:43:15;8.30;;;7.00;;
10910;SDS011;5508;49.150;11.030;2023-11-18T10:46:17;6.97;;;6.27;;
10910;SDS011;5508;49.150;11.030;2023-11-18T10:49:20;13.27;;;6.70;;
10910;SDS011;5508;49.150;11.030;2023-11-18T10:52:21;6.80;;;5.93;;
10910;SDS011;5508;49.150;11.030;2023-11-18T10:55:23;6.77;;;6.03;;
10910;SDS011;5508;49.150;11.030;2023-11-18T10:58:38;5.63;;;5.03;;
10910;SDS011;5508;49.150;11.030;2023-11-18T11:01:41;8.43;;;7.50;;
10910;SDS011;5508;49.150;11.030;2023-11-18T11:04:42;7.07;;;6.37;;
10910;SDS011;5508;49.150;11.030;2023-11-18T11:07:44;11.30;;;9.83;;
10910;SDS011;5508;49.150;11.030;2023-11-18T11:10:45;6.90;;;5.10;;
10910;SDS011;5508;49.150;11.030;2023-11-18T11:13:59;11.63;;;10.03;;
10910;SDS011;5508;49.150;11.030;2023-11-18T11:17:01;6.00;;;4.47;;
10910;SDS011;5508;49.150;11.030;2023-11-18T11:20:11;4.87;;;4.17;;
10910;SDS011;5508;49.150;11.030;2023-11-18T11:29:59;9.13;;;6.87;;
10910;SDS011;5508;49.150;11.030;2023-11-18T11:33:14;6.57;;;5.03;;
10910;SDS011;5508;49.150;11.030;2023-11-18T11:36:20;6.80;;;4.53;;
10910;SDS011;5508;49.150;11.030;2023-11-18T11:39:24;3.77;;;3.37;;
10910;SDS011;5508;49.150;11.030;2023-11-18T11:42:25;6.20;;;4.43;;
10910;SDS011;5508;49.150;11.030;2023-11-18T11:45:27;7.03;;;5.90;;
10910;SDS011;5508;49.150;11.030;2023-11-18T11:48:31;27.87;;;22.37;;
10910;SDS011;5508;49.150;11.030;2023-11-18T11:51:40;10.07;;;7.23;;
10910;SDS011;5508;49.150;11.030;2023-11-18T11:54:56;10.40;;;8.17;;
10910;SDS011;5508;49.150;11.030;2023-11-18T11:58:10;4.17;;;3.83;;
10910;SDS011;5508;49.150;11.030;2023-11-18T12:01:27;3.50;;;3.20;;
10910;SDS011;5508;49.150;11.030;2023-11-18T12:04:35;9.90;;;8.90;;
10910;SDS011;5508;49.150;11.030;2023-11-18T12:07:38;10.87;;;8.63;;
10910;SDS011;5508;49.150;11.030;2023-11-18T12:10:40;10.13;;;7.30;;
10910;SDS011;5508;49.150;11.030;2023-11-18T12:17:23;29.37;;;15.50;;
10910;SDS011;5508;49.150;11.030;2023-11-18T12:20:44;4.93;;;4.37;;
10910;SDS011;5508;49.150;11.030;2023-11-18T12:24:14;8.77;;;7.73;;
10910;SDS011;5508;49.150;11.030;2023-11-18T12:30:41;16.07;;;11.80;;
10910;SDS011;5508;49.150;11.030;2023-11-18T12:37:10;4.40;;;3.30;;
10910;SDS011;5508;49.150;11.030;2023-11-18T12:40:32;3.27;;;2.97;;
10910;SDS011;5508;49.150;11.030;2023-11-18T12:43:47;4.33;;;3.20;;
10910;SDS011;5508;49.150;11.030;2023-11-18T12:46:50;3.90;;;3.47;;
10910;SDS011;5508;49.150;11.030;2023-11-18T12:49:55;6.23;;;3.90;;
10910;SDS011;5508;49.150;11.030;2023-11-18T12:52:56;4.13;;;3.73;;
10910;SDS011;5508;49.150;11.030;2023-11-18T12:55:58;5.00;;;3.97;;
10910;SDS011;5508;49.150;11.030;2023-11-18T12:59:00;6.00;;;5.40;;
10910;SDS011;5508;49.150;11.030;2023-11-18T13:02:09;3.23;;;2.93;;
10910;SDS011;5508;49.150;11.030;2023-11-18T13:05:18;6.10;;;4.40;;
10910;SDS011;5508;49.150;11.030;2023-11-18T13:08:18;5.23;;;3.37;;
10910;SDS011;5508;49.150;11.030;2023-11-18T13:11:22;4.47;;;3.80;;
10910;SDS011;5508;49.150;11.030;2023-11-18T13:14:24;4.50;;;3.70;;
10910;SDS011;5508;49.150;11.030;2023-11-18T13:17:30;14.03;;;8.43;;
10910;SDS011;5508;49.150;11.030;2023-11-18T13:20:30;12.93;;;7.40;;
10910;SDS011;5508;49.150;11.030;2023-11-18T13:23:33;10.00;;;6.37;;
10910;SDS011;5508;49.150;11.030;2023-11-18T13:26:34;6.37;;;4.40;;
10910;SDS011;5508;49.150;11.030;2023-11-18T13:29:34;10.73;;;8.13;;
10910;SDS011;5508;49.150;11.030;2023-11-18T13:32:36;9.20;;;4.60;;
10910;SDS011;5508;49.150;11.030;2023-11-18T13:35:36;38.97;;;23.77;;
10910;SDS011;5508;49.150;11.030;2023-11-18T13:38:37;20.57;;;13.73;;
10910;SDS011;5508;49.150;11.030;2023-11-18T13:41:39;22.80;;;14.60;;
10910;SDS011;5508;49.150;11.030;2023-11-18T13:44:41;18.50;;;11.67;;
10910;SDS011;5508;49.150;11.030;2023-11-18T13:47:52;9.13;;;6.40;;
10910;SDS011;5508;49.150;11.030;2023-11-18T13:50:56;21.23;;;13.07;;
10910;SDS011;5508;49.150;11.030;2023-11-18T13:53:58;18.10;;;11.93;;
10910;SDS011;5508;49.150;11.030;2023-11-18T13:56:59;10.13;;;6.57;;
10910;SDS011;5508;49.150;11.030;2023-11-18T14:00:00;22.53;;;15.80;;
10910;SDS011;5508;49.150;11.030;2023-11-18T14:03:00;4.27;;;2.50;;
10910;SDS011;5508;49.150;11.030;2023-11-18T14:06:07;2.47;;;2.07;;
10910;SDS011;5508;49.150;11.030;2023-11-18T14:09:12;6.87;;;4.87;;
10910;SDS011;5508;49.150;11.030;2023-11-18T14:12:15;2.47;;;1.93;;
10910;SDS011;5508;49.150;11.030;2023-11-18T14:15:16;4.57;;;2.13;;
10910;SDS011;5508;49.150;11.030;2023-11-18T14:18:17;1.93;;;1.63;;
10910;SDS011;5508;49.150;11.030;2023-11-18T14:21:17;2.70;;;2.07;;
10910;SDS011;5508;49.150;11.030;2023-11-18T14:24:18;2.60;;;2.20;;
10910;SDS011;5508;49.150;11.030;2023-11-18T14:27:19;5.23;;;2.30;;
10910;SDS011;5508;49.150;11.030;2023-11-18T14:30:19;5.33;;;3.47;;
10910;SDS011;5508;49.150;11.030;2023-11-18T14:33:23;28.90;;;20.83;;
10910;SDS011;5508;49.150;11.030;2023-11-18T14:36:24;11.87;;;7.70;;
10910;SDS011;5508;49.150;11.030;2023-11-18T14:39:25;5.90;;;3.47;;
10910;SDS011;5508;49.150;11.030;2023-11-18T14:42:26;3.77;;;2.10;;
10910;SDS011;5508;49.150;11.030;2023-11-18T14:45:27;4.67;;;2.67;;
10910;SDS011;5508;49.150;11.030;2023-11-18T14:48:28;5.80;;;2.23;;
10910;SDS011;5508;49.150;11.030;2023-11-18T14:51:28;3.20;;;2.20;;
10910;SDS011;5508;49.150;11.030;2023-11-18T14:54:29;3.27;;;2.10;;
10910;SDS011;5508;49.150;11.030;2023-11-18T14:57:35;2.70;;;1.90;;
10910;SDS011;5508;49.150;11.030;2023-11-18T15:00:36;4.83;;;3.27;;
10910;SDS011;5508;49.150;11.030;2023-11-18T15:03:37;4.97;;;3.17;;
10910;SDS011;5508;49.150;11.030;2023-11-18T15:06:37;10.80;;;7.17;;
10910;SDS011;5508;49.150;11.030;2023-11-18T15:09:38;21.13;;;13.60;;
10910;SDS011;5508;49.150;11.030;2023-11-18T15:12:41;6.43;;;4.77;;
10910;SDS011;5508;49.150;11.030;2023-11-18T15:15:41;3.83;;;2.33;;
10910;SDS011;5508;49.150;11.030;2023-11-18T15:18:42;3.00;;;2.60;;
10910;SDS011;5508;49.150;11.030;2023-11-18T15:21:46;6.57;;;2.70;;
10910;SDS011;5508;49.150;11.030;2023-11-18T15:24:47;2.53;;;2.33;;
10910;SDS011;5508;49.150;11.030;2023-11-18T15:27:48;3.00;;;2.20;;
10910;SDS011;5508;49.150;11.030;2023-11-18T15:30:49;5.00;;;3.10;;
10910;SDS011;5508;49.150;11.030;2023-11-18T15:33:50;3.40;;;2.97;;
10910;SDS011;5508;49.150;11.030;2023-11-18T15:36:50;5.77;;;3.73;;
10910;SDS011;5508;49.150;11.030;2023-11-18T15:39:52;13.43;;;7.50;;
10910;SDS011;5508;49.150;11.030;2023-11-18T15:42:53;23.20;;;16.57;;
10910;SDS011;5508;49.150;11.030;2023-11-18T15:45:53;6.67;;;4.57;;
10910;SDS011;5508;49.150;11.030;2023-11-18T15:48:56;5.53;;;3.70;;
10910;SDS011;5508;49.150;11.030;2023-11-18T15:51:56;8.43;;;6.13;;
10910;SDS011;5508;49.150;11.030;2023-11-18T15:54:57;7.50;;;4.77;;
10910;SDS011;5508;49.150;11.030;2023-11-18T15:57:59;30.17;;;20.17;;
10910;SDS011;5508;49.150;11.030;2023-11-18T16:00:59;4.97;;;4.07;;
10910;SDS011;5508;49.150;11.030;2023-11-18T16:04:01;6.53;;;4.83;;
10910;SDS011;5508;49.150;11.030;2023-11-18T16:07:03;6.80;;;5.83;;
10910;SDS011;5508;49.150;11.030;2023-11-18T16:10:04;31.40;;;20.73;;
10910;SDS011;5508;49.150;11.030;2023-11-18T16:13:05;13.87;;;10.87;;
10910;SDS011;5508;49.150;11.030;2023-11-18T16:16:06;7.93;;;7.13;;
10910;SDS011;5508;49.150;11.030;2023-11-18T16:19:08;5.40;;;4.37;;
10910;SDS011;5508;49.150;11.030;2023-11-18T16:22:09;6.87;;;5.47;;
10910;SDS011;5508;49.150;11.030;2023-11-18T16:25:09;7.13;;;5.50;;
10910;SDS011;5508;49.150;11.030;2023-11-18T16:28:10;13.90;;;10.80;;
10910;SDS011;5508;49.150;11.030;2023-11-18T16:31:13;7.30;;;5.30;;
10910;SDS011;5508;49.150;11.030;2023-11-18T16:34:14;5.50;;;4.80;;
10910;SDS011;5508;49.150;11.030;2023-11-18T16:37:14;6.57;;;5.30;;
10910;SDS011;5508;49.150;11.030;2023-11-18T16:40:15;5.63;;;5.03;;
10910;SDS011;5508;49.150;11.030;2023-11-18T16:43:17;12.27;;;6.03;;
10910;SDS011;5508;49.150;11.030;2023-11-18T16:46:18;9.30;;;7.77;;
10910;SDS011;5508;49.150;11.030;2023-11-18T16:49:18;9.40;;;6.60;;
10910;SDS011;5508;49.150;11.030;2023-11-18T16:52:21;12.77;;;10.60;;
10910;SDS011;5508;49.150;11.030;2023-11-18T16:55:22;13.23;;;9.97;;
10910;SDS011;5508;49.150;11.030;2023-11-18T16:58:23;79.70;;;47.30;;
10910;SDS011;5508;49.150;11.030;2023-11-18T17:01:25;36.93;;;20.57;;
10910;SDS011;5508;49.150;11.030;2023-11-18T17:04:25;46.23;;;30.57;;
10910;SDS011;5508;49.150;11.030;2023-11-18T17:07:26;17.47;;;11.63;;
10910;SDS011;5508;49.150;11.030;2023-11-18T17:10:27;23.47;;;18.23;;
10910;SDS011;5508;49.150;11.030;2023-11-18T17:13:27;10.73;;;8.90;;
10910;SDS011;5508;49.150;11.030;2023-11-18T17:16:30;9.67;;;8.20;;
10910;SDS011;5508;49.150;11.030;2023-11-18T17:19:31;7.33;;;6.33;;
10910;SDS011;5508;49.150;11.030;2023-11-18T17:22:32;7.23;;;6.03;;
10910;SDS011;5508;49.150;11.030;2023-11-18T17:25:32;8.93;;;6.23;;
10910;SDS011;5508;49.150;11.030;2023-11-18T17:28:33;6.03;;;5.43;;
10910;SDS011;5508;49.150;11.030;2023-11-18T17:31:34;7.27;;;5.87;;
10910;SDS011;5508;49.150;11.030;2023-11-18T17:34:35;8.47;;;5.70;;
10910;SDS011;5508;49.150;11.030;2023-11-18T17:37:36;7.83;;;6.80;;
10910;SDS011;5508;49.150;11.030;2023-11-18T17:40:37;11.40;;;10.03;;
10910;SDS011;5508;49.150;11.030;2023-11-18T17:43:37;17.33;;;13.27;;
10910;SDS011;5508;49.150;11.030;2023-11-18T17:46:38;21.10;;;17.43;;
10910;SDS011;5508;49.150;11.030;2023-11-18T17:49:39;10.60;;;9.37;;
10910;SDS011;5508;49.150;11.030;2023-11-18T17:52:39;11.40;;;6.80;;
10910;SDS011;5508;49.150;11.030;2023-11-18T17:55:41;11.97;;;8.70;;
10910;SDS011;5508;49.150;11.030;2023-11-18T17:58:42;13.50;;;9.03;;
10910;SDS011;5508;49.150;11.030;2023-11-18T18:01:43;6.47;;;5.37;;
10910;SDS011;5508;49.150;11.030;2023-11-18T18:04:44;15.10;;;11.63;;
10910;SDS011;5508;49.150;11.030;2023-11-18T18:07:45;7.20;;;5.03;;
10910;SDS011;5508;49.150;11.030;2023-11-18T18:10:45;6.80;;;4.60;;
10910;SDS011;5508;49.150;11.030;2023-11-18T18:13:47;14.97;;;9.73;;
10910;SDS011;5508;49.150;11.030;2023-11-18T18:16:47;8.40;;;6.20;;
10910;SDS011;5508;49.150;11.030;2023-11-18T18:19:48;9.50;;;7.40;;
10910;SDS011;5508;49.150;11.030;2023-11-18T18:22:49;6.93;;;4.47;;
10910;SDS011;5508;49.150;11.030;2023-11-18T18:25:49;16.70;;;10.63;;